Contract 0x0000000000000000000000000000000000000804 11

Contract Overview

Moonbeam: Xtokens
Balance:
0 GLMR

GLMR Value:
$0.00
Txn Hash Method
Block
From
To
Value [Txn Fee]
0x0a8dbd9a434dfde8e9d74be03e5a3b67427c44e7dba341f6490bebd3a597cfbeTransfer*13281952022-06-28 8:47:364 mins ago0xa95b7843825449dc588ec06018b48019d1111000 IN Moonbeam: Xtokens0 GLMR0.004392514
0x56b96e72800160c82ceaccfad97462cc7deb927bc0ef119ac84e42a88cbc850aTransfer*13281812022-06-28 8:44:367 mins ago0xa95b7843825449dc588ec06018b48019d1111000 IN Moonbeam: Xtokens0 GLMR0.004454632
0x814124a2a1ff2ebe2471046de07c57afd48c66491fb16d32c90e235c048f6c5dTransfer*13281692022-06-28 8:42:0610 mins ago0xba99f374c20a3475de737b466ee68ad9c38c26af IN Moonbeam: Xtokens0 GLMR0.004391296
0xb1284a4f210cdc1baaf3c165f093a2fa003eebdea30f2ef78fbe2c3b19d2dd3dTransfer*13281592022-06-28 8:40:0012 mins ago0xa95b7843825449dc588ec06018b48019d1111000 IN Moonbeam: Xtokens0 GLMR0.004453414
0x80c3084b532fefafd731abf703a9d03f959bb8a04ed19a176a0f0895d8f4aafaTransfer*13279882022-06-28 8:04:0648 mins ago0xfb09da501a1939959daefa9dbdf196007a9befa4 IN Moonbeam: Xtokens0 GLMR0.004392514
0x4582370c845b4dfe3cfe40cfcc2afcff8efe1c8eadbbe6182c14ba763ce0991eTransfer*13279822022-06-28 8:02:4849 mins ago0xba99f374c20a3475de737b466ee68ad9c38c26af IN Moonbeam: Xtokens0 GLMR0.004390078
0x915028b66cc0dfefd1fbf73360650434bd8628b56883b2a567015f0448af64baTransfer*13276652022-06-28 6:56:121 hr 56 mins ago0xba99f374c20a3475de737b466ee68ad9c38c26af IN Moonbeam: Xtokens0 GLMR0.004390078
0x4fa5a6a4d2c74c8ceba6716377d7ee0786ffab73c89e37023ed3631ec425e24aTransfer*13276502022-06-28 6:53:061 hr 59 mins ago0xba99f374c20a3475de737b466ee68ad9c38c26af IN Moonbeam: Xtokens0 GLMR0.004391296
0x870fc5a18d362ae40a59a7f6d0eb0901d88e3f958b3ee287b3f6d55309fc2361Transfer*13276042022-06-28 6:43:122 hrs 9 mins ago0xef46c7649270c912704fb09b75097f6e32208b85 IN Moonbeam: Xtokens0 GLMR0.004392514
0xffe337b71e9936b671f11ab85614426fdd04e99f3257889f4a58a31b5e271ecaTransfer*13275892022-06-28 6:39:542 hrs 12 mins ago0xef46c7649270c912704fb09b75097f6e32208b85 IN Moonbeam: Xtokens0 GLMR0.004436362
0x90d50f736d5e78daeb408e9095f3f537e03c26d099a537a5d733cd3d8c420cf0Transfer*13275742022-06-28 6:36:542 hrs 15 mins ago0xef46c7649270c912704fb09b75097f6e32208b85 IN Moonbeam: Xtokens0 GLMR0.004435144
0xf20a93abb3f1fed4e92bf00b99eeeb44d640fec95d32ffbcab27b0199e5d6e5bTransfer*13275632022-06-28 6:34:362 hrs 17 mins ago0xef46c7649270c912704fb09b75097f6e32208b85 IN Moonbeam: Xtokens0 GLMR0.004436362
0x74f1ba7db9bb55de2454b837012ce1021b12999a03fcd75dd194bb7cefc86ae7Transfer*13275502022-06-28 6:32:002 hrs 20 mins ago0xef46c7649270c912704fb09b75097f6e32208b85 IN Moonbeam: Xtokens0 GLMR0.004415656
0x5c287cb364d1d3991adcf7a33b6d3145725f022afde512182a0880843e448b25Transfer*13275422022-06-28 6:30:122 hrs 22 mins ago0xef46c7649270c912704fb09b75097f6e32208b85 IN Moonbeam: Xtokens0 GLMR0.004415656
0x36747e653bb1b64bb4789faeda94259e45539687ba44b48bcc994310d2bb80d3Transfer*13275272022-06-28 6:27:002 hrs 25 mins ago0xfa193312655f79c7b0ee7d7ef904486836180026 IN Moonbeam: Xtokens0 GLMR0.004392514
0xfce84f32b773d5d84f36559e5b813a2172d01cdc83fb5315141713000d7882f1Transfer*13274552022-06-28 6:11:482 hrs 40 mins ago0x00c3a76523f699c84735d6acc2e2d9e33173aa63 IN Moonbeam: Xtokens0 GLMR0.004369664
0xe021b830a41742c753084f5beccf4f32298be208bfecbebe593788847fe792eaTransfer*13270422022-06-28 4:45:184 hrs 7 mins ago0x11197272254ac4814828ad9c4571456b6483908d IN Moonbeam: Xtokens0 GLMR0.0043276
0xbccc813ecc3564bba1f6db51329baba246bb3b26c8e494fc83d2e2101aa4bf86Transfer*13270232022-06-28 4:41:064 hrs 11 mins ago0x11197272254ac4814828ad9c4571456b6483908d IN Moonbeam: Xtokens0 GLMR0.0043264
0x0ea9dc30224498b70159918cfbaca34f3124a28bcae159053c4e7b936e45d057Transfer*13268832022-06-28 4:12:244 hrs 40 mins ago0x33ed218df8aada8f718d4ad48d155247be03a843 IN Moonbeam: Xtokens0 GLMR0.004415656
0xc135b1977d7dbdd9cc795ad5a16a293801cae980faa9df93f901762e8d1f820dTransfer*13267232022-06-28 3:39:245 hrs 13 mins ago0xe1fa699860444be91d366c21de8fef56e3dec77a IN Moonbeam: Xtokens0 GLMR0.0086576
0x8cd0521ec8e1cc12962e5f9e14e463e648b7d2e89517665a1c7970411fe3a1f1Transfer*13253302022-06-27 22:40:4810 hrs 11 mins ago0xedb28058c696a3bccaf205e9b30f57bddbc95089 IN Moonbeam: Xtokens0 GLMR0.004415376
0xe6e0d9f5e5b52f1307ed303246142a4f868ee0b1a00262764c8a513adec2f2f1Transfer*13253232022-06-27 22:39:0610 hrs 13 mins ago0x9381373da9468983bbb5254cb3d8523c8994e698 IN Moonbeam: Xtokens0 GLMR0.004414152
0x24a2a42952da7e6afe7ac814fbd1d5f862cff9e3e005a80002e8a5bf19a1c09cTransfer*13249812022-06-27 21:26:3611 hrs 25 mins ago0x525077ee77fd4c34d0a1147648d59c08c26704e2 IN Moonbeam: Xtokens0 GLMR0.004414152
0x2243b000b9b4173caba19777ea74af1d8ea2cd20d727754c9406689bd0ef677aTransfer*13249512022-06-27 21:20:0611 hrs 32 mins ago0x356eb354aea711854e1d69a36643e181a1da8ba5 IN Moonbeam: Xtokens0 GLMR0.00443758
0xb7a77d90f07fc299b84237da3391f7624218f2a4f6f9986b53f33561ded7e7f2Transfer*13246412022-06-27 20:13:5412 hrs 38 mins ago0x61951b525531221a8d3e90568354ec2bb1baddac IN Moonbeam: Xtokens0 GLMR0.004392514
[ Download CSV Export 
Parent Txn Hash Block From To Value
Loading
Are you the contract creator? Verify and Publish your contract source code today!

Decompile ByteCode
Unable to retrieve contract source code

Contract ABI
[ { "inputs": [ { "internalType": "address", "name": "currency_address", "type": "address" }, { "internalType": "uint256", "name": "amount", "type": "uint256" }, { "components": [ { "internalType": "uint8", "name": "parents", "type": "uint8" }, { "internalType": "bytes[]", "name": "interior", "type": "bytes[]" } ], "internalType": "struct Xtokens.Multilocation", "name": "destination", "type": "tuple" }, { "internalType": "uint64", "name": "weight", "type": "uint64" } ], "name": "transfer", "outputs": [], "stateMutability": "nonpayable", "type": "function" }, { "inputs": [ { "components": [ { "internalType": "uint8", "name": "parents", "type": "uint8" }, { "internalType": "bytes[]", "name": "interior", "type": "bytes[]" } ], "internalType": "struct Xtokens.Multilocation", "name": "asset", "type": "tuple" }, { "internalType": "uint256", "name": "amount", "type": "uint256" }, { "components": [ { "internalType": "uint8", "name": "parents", "type": "uint8" }, { "internalType": "bytes[]", "name": "interior", "type": "bytes[]" } ], "internalType": "struct Xtokens.Multilocation", "name": "destination", "type": "tuple" }, { "internalType": "uint64", "name": "weight", "type": "uint64" } ], "name": "transfer_multiasset", "outputs": [], "stateMutability": "nonpayable", "type": "function" } ]
Block Transaction Gas Used Reward
Age Block Fee Address BC Fee Address Voting Power Jailed Incoming
Block Uncle Number Difficulty Gas Used Reward
Loading
Make sure to use the "Vote Down" button for any spammy posts, and the "Vote Up" for interesting conversations.